.
WxDataArchive / Data Records for 2008-01-17
2008-01-16 January 2008 2008-01-18

Data Records for Thursday, 17 January 2008

Time	Temp	Chill	HIndex	Humid	Dewpt	 Wind 	HiWind	WindDir	Rain 	Barom 
-----	----	-----	------	-----	-----	------	------	-------	-----	----- 
00:00	29.0	29.0	29.0	78	23.0	0	1	135	0.00	30.110 
00:05	29.0	29.0	29.0	79	23.3	0	1	135	0.00	30.106 
00:10	29.0	29.0	29.0	79	23.3	0	2	135	0.00	30.104 
00:15	28.8	28.8	28.8	79	23.1	0	2	135	0.00	30.103 
00:20	28.8	28.8	28.8	79	23.1	0	2	135	0.00	30.107 
00:25	28.8	28.8	28.8	79	23.1	0	3	135	0.00	30.106 
00:30	29.0	29.0	29.0	78	23.0	0	1	135	0.00	30.106 
00:35	29.0	29.0	29.0	78	23.0	0	1	135	0.00	30.105 
00:40	29.0	29.0	29.0	78	23.0	0	2	135	0.00	30.106 
00:45	29.1	29.1	29.1	78	23.1	0	1	135	0.00	30.107 
00:50	29.1	29.1	29.1	77	22.8	0	2	135	0.00	30.105 
00:55	29.3	29.3	29.3	77	23.0	0	2	135	0.00	30.105 
01:00	29.3	29.3	29.3	77	23.0	1	2	135	0.00	30.100 
01:05	29.3	29.3	29.3	77	23.0	0	3	135	0.00	30.097 
01:10	29.3	29.3	29.3	77	23.0	0	1	135	0.00	30.098 
01:15	29.4	29.4	29.4	77	23.1	0	2	135	0.00	30.096 
01:20	29.4	29.4	29.4	77	23.1	0	1	112	0.00	30.094 
01:25	29.4	29.4	29.4	77	23.1	0	1	112	0.00	30.091 
01:30	29.4	29.4	29.4	77	23.1	0	1	112	0.00	30.083 
01:35	29.3	29.3	29.3	77	23.0	0	1	112	0.00	30.081 
01:40	29.3	29.3	29.3	77	23.0	0	1	112	0.00	30.078 
01:45	29.3	29.3	29.3	77	23.0	0	1	112	0.00	30.074 
01:50	29.3	29.3	29.3	77	23.0	0	1	112	0.00	30.073 
01:55	29.1	29.1	29.1	77	22.8	0	0	---	0.00	30.073 
02:00	29.1	29.1	29.1	77	22.8	0	1	112	0.00	30.070 
02:05	29.1	29.1	29.1	77	22.8	0	1	112	0.00	30.069 
02:10	29.1	29.1	29.1	78	23.1	0	0	---	0.00	30.064 
02:15	29.0	29.0	29.0	78	23.0	0	0	---	0.00	30.063 
02:20	29.0	29.0	29.0	77	22.7	0	0	---	0.00	30.064 
02:25	29.0	29.0	29.0	78	23.0	0	0	---	0.00	30.064 
02:30	29.0	29.0	29.0	79	23.3	0	1	112	0.00	30.063 
02:35	29.0	29.0	29.0	79	23.3	0	1	112	0.00	30.064 
02:40	29.0	29.0	29.0	79	23.3	0	1	112	0.00	30.064 
02:45	29.0	29.0	29.0	78	23.0	0	1	112	0.00	30.063 
02:50	29.0	29.0	29.0	78	23.0	0	1	112	0.00	30.062 
02:55	29.1	29.1	29.1	78	23.1	0	2	112	0.00	30.059 
03:00	29.1	29.1	29.1	78	23.1	0	1	112	0.00	30.053 
03:05	29.3	29.3	29.3	77	23.0	0	1	112	0.00	30.051 
03:10	29.3	29.3	29.3	77	23.0	0	2	112	0.00	30.048 
03:15	29.4	29.4	29.4	77	23.1	0	1	112	0.00	30.047 
03:20	29.4	29.4	29.4	78	23.4	0	1	112	0.00	30.046 
03:25	29.3	29.3	29.3	79	23.6	0	1	112	0.00	30.045 
03:30	29.3	29.3	29.3	79	23.6	0	2	112	0.00	30.040 
03:35	29.3	29.3	29.3	79	23.6	0	2	112	0.00	30.037 
03:40	29.1	29.1	29.1	79	23.4	0	2	112	0.00	30.033 
03:45	29.1	29.1	29.1	79	23.4	0	1	112	0.00	30.031 
03:50	29.1	29.1	29.1	80	23.7	0	1	112	0.00	30.030 
03:55	29.1	29.1	29.1	80	23.7	0	2	112	0.00	30.025 
04:00	29.1	29.1	29.1	80	23.7	0	2	112	0.00	30.024 
04:05	29.1	29.1	29.1	80	23.7	0	2	112	0.00	30.024 
04:10	29.1	29.1	29.1	81	24.0	0	1	112	0.00	30.018 
04:15	29.1	29.1	29.1	81	24.0	0	2	112	0.00	30.017 
04:20	29.1	29.1	29.1	81	24.0	0	1	112	0.00	30.017 
04:25	29.3	29.3	29.3	81	24.2	0	1	112	0.00	30.016 
04:30	29.3	29.3	29.3	81	24.2	0	2	112	0.00	30.015 
04:35	29.3	29.3	29.3	81	24.2	0	1	112	0.00	30.014 
04:40	29.4	29.4	29.4	81	24.3	0	0	---	0.00	30.012 
04:45	29.4	29.4	29.4	81	24.3	0	1	112	0.00	30.008 
04:50	29.4	29.4	29.4	81	24.3	0	1	112	0.00	30.007 
04:55	29.5	29.5	29.5	80	24.1	0	1	112	0.00	30.007 
05:00	29.5	29.5	29.5	80	24.1	0	1	112	0.00	30.004 
05:05	29.7	29.7	29.7	80	24.3	0	1	112	0.00	30.004 
05:10	29.8	29.8	29.8	80	24.4	0	1	112	0.00	30.002 
05:15	30.0	30.0	30.0	79	24.3	0	2	112	0.00	30.001 
05:20	30.1	30.1	30.1	78	24.1	1	2	135	0.00	30.001 
05:25	30.3	30.3	30.3	77	24.0	1	4	135	0.00	29.999 
05:30	30.6	30.6	30.6	77	24.3	1	3	135	0.00	29.994 
05:35	30.6	30.6	30.6	77	24.3	1	2	135	0.00	29.987 
05:40	30.7	30.7	30.7	78	24.7	1	3	135	0.00	29.985 
05:45	30.9	30.9	30.9	79	25.2	1	3	135	0.00	29.984 
05:50	31.0	31.0	31.0	81	25.9	1	4	112	0.00	29.984 
05:55	31.2	31.2	31.2	83	26.6	1	3	135	0.00	29.984 
06:00	31.3	31.3	31.3	84	27.0	0	2	135	0.00	29.984 
06:05	31.3	31.3	31.3	85	27.3	1	3	135	0.00	29.986 
06:10	31.3	31.3	31.3	86	27.6	0	1	112	0.00	29.984 
06:15	31.3	31.3	31.3	87	27.9	1	3	112	0.00	29.983 
06:20	31.3	31.3	31.3	88	28.2	1	3	135	0.00	29.983 
06:25	31.3	31.3	31.3	89	28.4	0	2	135	0.00	29.982 
06:30	31.2	31.2	31.2	90	28.6	0	1	135	0.00	29.982 
06:35	31.2	31.2	31.2	90	28.6	0	1	135	0.00	29.982 
06:40	31.2	31.2	31.2	91	28.9	1	2	135	0.00	29.981 
06:45	31.3	31.3	31.3	91	29.0	1	3	135	0.00	29.976 
06:50	31.3	31.3	31.3	92	29.3	1	2	135	0.00	29.975 
06:55	31.3	31.3	31.3	92	29.3	1	3	135	0.00	29.973 
07:00	31.5	31.5	31.5	92	29.4	1	3	135	0.00	29.972 
07:05	31.5	31.5	31.5	92	29.4	0	2	112	0.00	29.975 
07:10	31.5	31.5	31.5	93	29.7	1	3	112	0.00	29.971 
07:15	31.5	31.5	31.5	93	29.7	0	3	112	0.00	29.971 
07:20	31.6	31.6	31.6	93	29.8	1	3	112	0.00	29.971 
07:25	31.6	31.6	31.6	93	29.8	1	5	135	0.00	29.970 
07:30	31.6	31.6	31.6	93	29.8	1	3	112	0.00	29.970 
07:35	31.6	31.6	31.6	93	29.8	1	3	112	0.00	29.969 
07:40	31.8	31.8	31.8	94	30.3	0	3	112	0.00	29.970 
07:45	31.8	31.8	31.8	94	30.3	1	2	135	0.00	29.971 
07:50	31.8	31.8	31.8	94	30.3	1	3	135	0.00	29.969 
07:55	31.8	31.8	31.8	94	30.3	1	3	135	0.00	29.968 
08:00	31.8	31.8	31.8	94	30.3	1	3	135	0.00	29.968 
08:05	31.6	31.6	31.6	94	30.1	1	5	112	0.00	29.962 
08:10	31.6	31.6	31.6	94	30.1	1	3	112	0.00	29.954 
08:15	31.5	31.5	31.5	94	30.0	0	2	112	0.00	29.957 
08:20	31.3	31.3	31.3	94	29.8	1	4	135	0.00	29.957 
08:25	31.2	31.2	31.2	94	29.7	1	3	135	0.00	29.956 
08:30	31.0	31.0	31.0	94	29.5	1	4	135	0.00	29.956 
08:35	31.0	31.0	31.0	94	29.5	1	3	112	0.00	29.958 
08:40	31.0	31.0	31.0	94	29.5	1	3	112	0.00	29.963 
08:45	31.0	31.0	31.0	94	29.5	1	3	135	0.00	29.967 
08:50	31.0	31.0	31.0	94	29.5	1	4	90	0.00	29.967 
08:55	31.0	31.0	31.0	94	29.5	1	4	135	0.00	29.966 
09:00	31.2	31.2	31.2	94	29.7	1	3	112	0.00	29.963 
09:05	31.2	31.2	31.2	94	29.7	1	2	112	0.00	29.964 
09:10	31.3	31.3	31.3	94	29.8	0	3	135	0.00	29.964 
09:15	31.3	31.3	31.3	94	29.8	0	2	112	0.00	29.964 
09:20	31.3	31.3	31.3	94	29.8	1	4	112	0.00	29.967 
09:25	31.5	31.5	31.5	94	30.0	1	3	135	0.00	29.962 
09:30	31.6	31.6	31.6	94	30.1	1	3	112	0.00	29.961 
09:35	31.6	31.6	31.6	94	30.1	1	3	135	0.00	29.958 
09:40	31.8	31.8	31.8	94	30.3	1	4	90	0.00	29.957 
09:45	31.8	31.8	31.8	94	30.3	1	4	112	0.00	29.956 
09:50	31.9	31.9	31.9	93	30.1	1	4	112	0.00	29.955 
09:55	31.9	31.9	31.9	93	30.1	1	3	112	0.00	29.955 
10:00	31.9	31.9	31.9	93	30.1	1	2	112	0.00	29.954 
10:05	31.9	31.9	31.9	93	30.1	1	3	112	0.00	29.953 
10:10	32.1	32.1	32.1	93	30.3	1	6	90	0.00	29.952 
10:15	32.1	32.1	32.1	93	30.3	2	5	112	0.00	29.947 
10:20	32.1	32.1	32.1	93	30.3	2	6	135	0.00	29.944 
10:25	32.1	32.1	32.1	93	30.3	1	5	112	0.00	29.943 
10:30	32.1	32.1	32.1	93	30.3	2	4	112	0.00	29.942 
10:35	32.1	32.1	32.1	93	30.3	2	7	135	0.00	29.941 
10:40	32.2	32.2	32.2	93	30.4	1	3	112	0.00	29.943 
10:45	32.2	32.2	32.2	93	30.4	1	3	90	0.00	29.945 
10:50	32.2	32.2	32.2	93	30.4	1	3	112	0.00	29.946 
10:55	32.2	32.2	32.2	93	30.4	1	3	112	0.00	29.943 
11:00	32.2	32.2	32.2	93	30.4	1	4	135	0.00	29.942 
11:05	32.2	32.2	32.2	93	30.4	1	3	112	0.00	29.938 
11:10	32.2	32.2	32.2	93	30.4	2	5	112	0.00	29.936 
11:15	32.4	32.4	32.4	92	30.3	1	3	112	0.00	29.929 
11:20	32.5	32.5	32.5	92	30.4	2	5	135	0.00	29.922 
11:25	32.7	32.7	32.7	92	30.6	2	5	112	0.00	29.917 
11:30	32.8	32.8	32.8	91	30.5	2	5	112	0.00	29.906 
11:35	33.1	33.1	33.1	90	30.5	2	5	90	0.00	29.899 
11:40	33.2	33.2	33.2	89	30.3	2	6	135	0.00	29.894 
11:45	33.4	33.4	33.4	89	30.5	2	7	112	0.00	29.889 
11:50	33.5	33.5	33.5	88	30.3	2	6	112	0.00	29.885 
11:55	33.7	33.7	33.7	88	30.5	2	5	112	0.00	29.884 
12:00	33.8	33.8	33.8	88	30.6	2	5	90	0.00	29.876 
12:05	33.8	33.8	33.8	88	30.6	2	7	112	0.01	29.874 
12:10	33.8	33.8	33.8	88	30.6	2	6	90	0.00	29.868 
12:15	33.8	33.8	33.8	88	30.6	3	6	112	0.00	29.861 
12:20	34.0	34.0	34.0	88	30.8	3	6	112	0.00	29.857 
12:25	34.1	34.1	34.1	88	30.9	3	6	112	0.00	29.853 
12:30	34.3	34.3	34.3	89	31.4	2	6	112	0.00	29.844 
12:35	34.4	34.4	34.4	88	31.2	2	5	135	0.01	29.841 
12:40	34.4	34.4	34.4	88	31.2	2	10	90	0.00	29.836 
12:45	34.6	34.6	34.6	88	31.4	2	6	112	0.00	29.825 
12:50	34.6	34.6	34.6	88	31.4	3	7	112	0.00	29.824 
12:55	34.6	34.6	34.6	88	31.4	2	5	135	0.00	29.823 
13:00	34.7	34.7	34.7	88	31.5	2	6	112	0.00	29.821 
13:05	34.7	34.7	34.7	89	31.8	1	4	90	0.00	29.819 
13:10	34.7	34.7	34.7	88	31.5	2	9	112	0.00	29.818 
13:15	34.7	34.7	34.7	88	31.5	2	5	90	0.00	29.813 
13:20	34.7	34.7	34.7	88	31.5	2	6	112	0.00	29.806 
13:25	34.7	34.7	34.7	88	31.5	2	7	90	0.01	29.805 
13:30	34.7	34.7	34.7	88	31.5	2	5	112	0.00	29.794 
13:35	34.7	34.7	34.7	88	31.5	2	5	90	0.00	29.794 
13:40	34.7	34.7	34.7	88	31.5	2	7	90	0.00	29.787 
13:45	34.7	34.7	34.7	87	31.2	2	5	90	0.00	29.782 
13:50	34.7	34.7	34.7	87	31.2	3	7	112	0.00	29.772 
13:55	34.9	34.9	34.9	87	31.4	1	5	112	0.00	29.772 
14:00	34.9	34.9	34.9	88	31.7	1	3	90	0.00	29.772 
14:05	35.0	35.0	35.0	87	31.5	3	7	112	0.00	29.769 
14:10	35.0	35.0	35.0	87	31.5	2	5	90	0.00	29.775 
14:15	35.0	35.0	35.0	87	31.5	1	5	90	0.00	29.775 
14:20	35.0	35.0	35.0	87	31.5	2	5	248	0.00	29.773 
14:25	34.9	34.9	34.9	87	31.4	3	8	90	0.00	29.772 
14:30	34.9	34.9	34.9	88	31.7	1	4	90	0.00	29.769 
14:35	34.9	34.9	34.9	88	31.7	2	6	90	0.00	29.763 
14:40	34.7	34.7	34.7	88	31.5	2	7	90	0.00	29.758 
14:45	34.9	34.9	34.9	88	31.7	1	4	112	0.00	29.755 
14:50	34.9	34.9	34.9	88	31.7	2	5	90	0.00	29.750 
14:55	34.9	34.9	34.9	88	31.7	2	5	112	0.00	29.746 
15:00	34.9	34.9	34.9	88	31.7	3	10	90	0.01	29.744 
15:05	34.9	34.9	34.9	89	32.0	2	6	90	0.00	29.738 
15:10	34.9	34.9	34.9	88	31.7	3	10	90	0.00	29.730 
15:15	35.0	35.0	35.0	89	32.1	3	7	112	0.00	29.733 
15:20	35.0	35.0	35.0	89	32.1	2	5	90	0.00	29.737 
15:25	35.0	35.0	35.0	89	32.1	2	9	112	0.00	29.740 
15:30	35.0	35.0	35.0	89	32.1	2	6	90	0.00	29.740 
15:35	35.0	35.0	35.0	89	32.1	1	4	0	0.00	29.741 
15:40	35.2	35.2	35.2	89	32.3	1	8	315	0.00	29.742 
15:45	35.2	35.2	35.2	89	32.3	1	3	90	0.00	29.734 
15:50	35.2	35.2	35.2	89	32.3	2	7	270	0.00	29.732 
15:55	35.2	35.2	35.2	89	32.3	1	5	90	0.00	29.731 
16:00	35.2	35.2	35.2	89	32.3	1	4	90	0.00	29.735 
16:05	35.2	35.2	35.2	89	32.3	2	9	248	0.00	29.734 
16:10	35.2	35.2	35.2	89	32.3	1	7	248	0.00	29.731 
16:15	35.2	35.2	35.2	89	32.3	1	5	315	0.00	29.729 
16:20	35.0	35.0	35.0	90	32.4	1	7	270	0.00	29.729 
16:25	35.2	35.2	35.2	90	32.6	1	6	270	0.00	29.728 
16:30	35.2	35.2	35.2	90	32.6	1	9	270	0.00	29.731 
16:35	35.2	35.2	35.2	90	32.6	1	4	248	0.00	29.730 
16:40	35.2	35.2	35.2	90	32.6	1	4	0	0.00	29.729 
16:45	35.2	35.2	35.2	90	32.6	1	5	248	0.00	29.729 
16:50	35.2	35.2	35.2	90	32.6	1	6	270	0.00	29.728 
16:55	35.0	35.0	35.0	90	32.4	2	5	270	0.00	29.729 
17:00	34.9	34.9	34.9	90	32.3	2	7	225	0.00	29.729 
17:05	34.7	34.7	34.7	91	32.3	2	4	248	0.00	29.725 
17:10	34.6	34.6	34.6	91	32.2	2	6	270	0.00	29.727 
17:15	34.4	34.4	34.4	92	32.3	1	7	270	0.00	29.725 
17:20	34.4	34.4	34.4	92	32.3	2	7	248	0.00	29.726 
17:25	34.3	34.3	34.3	92	32.2	1	5	248	0.01	29.727 
17:30	34.1	34.1	34.1	93	32.3	2	6	248	0.00	29.727 
17:35	34.1	34.1	34.1	93	32.3	2	6	248	0.00	29.726 
17:40	34.1	34.1	34.1	93	32.3	1	5	248	0.00	29.723 
17:45	34.0	34.0	34.0	93	32.2	2	7	248	0.00	29.724 
17:50	34.0	34.0	34.0	93	32.2	3	7	248	0.00	29.723 
17:55	34.0	34.0	34.0	94	32.5	2	5	270	0.00	29.726 
18:00	34.0	34.0	34.0	94	32.5	2	10	248	0.00	29.722 
18:05	34.0	34.0	34.0	94	32.5	1	5	292	0.00	29.716 
18:10	34.0	34.0	34.0	94	32.5	2	6	225	0.00	29.715 
18:15	33.8	33.8	33.8	94	32.3	1	9	248	0.00	29.716 
18:20	33.8	33.8	33.8	94	32.3	2	8	248	0.00	29.714 
18:25	33.8	33.8	33.8	94	32.3	1	5	248	0.01	29.712 
18:30	33.8	30.2	33.8	94	32.3	4	9	248	0.00	29.712 
18:35	33.8	33.8	33.8	94	32.3	3	6	248	0.00	29.711 
18:40	34.0	34.0	34.0	94	32.5	2	8	248	0.00	29.716 
18:45	34.0	34.0	34.0	94	32.5	3	12	270	0.00	29.718 
18:50	34.0	30.4	34.0	94	32.5	4	12	248	0.00	29.720 
18:55	34.0	30.4	34.0	94	32.5	4	9	248	0.00	29.724 
19:00	34.0	30.4	34.0	94	32.5	4	12	270	0.00	29.720 
19:05	34.0	34.0	34.0	94	32.5	3	6	248	0.00	29.719 
19:10	34.0	34.0	34.0	93	32.2	3	7	248	0.00	29.716 
19:15	34.0	30.4	34.0	93	32.2	4	10	270	0.00	29.715 
19:20	34.0	30.4	34.0	93	32.2	4	9	248	0.00	29.720 
19:25	34.1	34.1	34.1	93	32.3	3	8	248	0.00	29.720 
19:30	34.1	30.5	34.1	93	32.3	4	11	248	0.00	29.721 
19:35	34.1	30.5	34.1	93	32.3	4	10	248	0.00	29.722 
19:40	34.3	30.7	34.3	93	32.5	4	11	248	0.00	29.724 
19:45	34.3	34.3	34.3	93	32.5	3	7	248	0.00	29.724 
19:50	34.3	30.7	34.3	93	32.5	4	13	248	0.00	29.722 
19:55	34.4	29.9	34.4	92	32.3	5	14	270	0.00	29.723 
20:00	34.4	34.4	34.4	92	32.3	3	10	248	0.00	29.724 
20:05	34.4	34.4	34.4	92	32.3	3	9	248	0.00	29.726 
20:10	34.3	34.3	34.3	92	32.2	3	7	248	0.00	29.725 
20:15	34.3	34.3	34.3	92	32.2	3	9	248	0.00	29.730 
20:20	33.4	27.9	33.4	91	31.1	6	15	270	0.00	29.735 
20:25	32.7	28.9	32.7	91	30.4	4	12	270	0.00	29.740 
20:30	32.4	28.5	32.4	90	29.8	4	15	270	0.00	29.737 
20:35	31.9	27.0	31.9	90	29.3	5	11	270	0.00	29.736 
20:40	31.8	26.8	31.8	90	29.2	5	12	270	0.00	29.736 
20:45	31.6	25.8	31.6	89	28.7	6	13	270	0.00	29.740 
20:50	31.6	25.0	31.6	88	28.5	7	21	270	0.00	29.745 
20:55	31.5	25.6	31.5	88	28.4	6	16	270	0.00	29.746 
21:00	30.6	25.4	30.6	87	27.2	5	17	270	0.00	29.757 
21:05	29.4	22.4	29.4	85	25.5	7	15	270	0.00	29.757 
21:10	29.0	23.6	29.0	85	25.1	5	11	270	0.00	29.764 
21:15	28.5	28.5	28.5	84	24.3	3	7	270	0.00	29.767 
21:20	27.9	22.3	27.9	84	23.7	5	10	270	0.00	29.772 
21:25	27.6	21.9	27.6	84	23.4	5	13	270	0.00	29.779 
21:30	27.3	20.6	27.3	84	23.1	6	19	270	0.00	29.780 
21:35	27.2	21.4	27.2	83	22.7	5	12	270	0.00	29.786 
21:40	26.9	21.1	26.9	81	21.9	5	11	270	0.00	29.789 
21:45	26.3	20.4	26.3	79	20.7	5	11	270	0.00	29.791 
21:50	26.0	20.0	26.0	78	20.1	5	17	270	0.00	29.797 
21:55	25.7	19.7	25.7	77	19.5	5	11	270	0.00	29.798 
22:00	25.6	19.6	25.6	78	19.7	5	16	270	0.00	29.801 
22:05	25.4	18.4	25.4	77	19.2	6	16	270	0.00	29.806 
22:10	25.3	20.3	25.3	76	18.8	4	11	270	0.00	29.816 
22:15	24.7	17.5	24.7	73	17.3	6	15	270	0.00	29.818 
22:20	24.4	19.3	24.4	74	17.3	4	11	270	0.00	29.818 
22:25	24.2	17.9	24.2	74	17.1	5	19	270	0.00	29.828 
22:30	24.1	19.0	24.1	74	17.0	4	11	270	0.00	29.828 
22:35	24.2	24.2	24.2	75	17.4	3	11	270	0.00	29.827 
22:40	24.2	19.1	24.2	75	17.4	4	13	270	0.00	29.832 
22:45	24.2	19.1	24.2	75	17.4	4	12	270	0.00	29.834 
22:50	24.2	19.1	24.2	76	17.7	4	9	270	0.00	29.835 
22:55	24.2	19.1	24.2	76	17.7	4	13	270	0.00	29.842 
23:00	24.2	19.1	24.2	77	18.1	4	7	270	0.00	29.843 
23:05	24.2	19.1	24.2	77	18.1	4	11	270	0.00	29.845 
23:10	24.1	19.0	24.1	77	18.0	4	12	270	0.00	29.849 
23:15	23.8	18.6	23.8	75	17.1	4	13	270	0.00	29.848 
23:20	23.5	17.1	23.5	74	16.5	5	14	270	0.00	29.854 
23:25	23.2	14.9	23.2	74	16.2	7	14	270	0.00	29.863 
23:30	22.5	14.0	22.5	71	14.5	7	16	270	0.00	29.863 
23:35	22.1	15.4	22.1	71	14.2	5	13	270	0.00	29.866 
23:40	21.8	15.1	21.8	70	13.5	5	13	270	0.00	29.867 
23:45	21.4	13.6	21.4	71	13.5	6	13	270	0.00	29.870 
23:50	21.1	13.2	21.1	71	13.2	6	18	270	0.00	29.874 
23:55	20.8	13.9	20.8	70	12.6	5	12	270	0.00	29.876 

CoCoRaHS
IN-AL-39
A2 Web Hosting
Creative Commons License
GoDaddy
Look for:

loaded 2017-10-19 12:16:07 • last modified 2010-11-18 10:43:29
Privacy PolicyDisclaimer
• wx.awcolley.com is powered by PmWiki v.2002016 •
• all content (unless otherwise noted) © 2017 A W Colley